ADDS METAR Data INFO
IDs: Format: Raw Decoded Include TAF

Data at: 1247 UTC 19 Oct 2017

KLGB 191201Z AUTO 00000KT 9SM SCT017 20/17 A2989 RMK AO2 T02000172
KLGB 191153Z AUTO 10003KT 9SM BKN017 20/17 A2989 RMK AO2 SLP120 T02000167 10200 20183 55005
KLGB 191053Z AUTO 00000KT 9SM OVC015 20/17 A2988 RMK AO2 SLP119 T02000172
KLGB 190953Z AUTO 00000KT 9SM OVC015 20/17 A2989 RMK AO2 SLP122 T02000172
KLGB 190946Z AUTO 00000KT 8SM OVC014 20/17 A2989 RMK AO2 T02000172
KLGB 190936Z AUTO 00000KT 8SM OVC015 19/18 A2989 RMK AO2 T01940178
KLGB 190903Z AUTO 00000KT 8SM BKN012 19/17 A2990 RMK AO2 T01890172
KLGB 190853Z AUTO 00000KT 8SM SCT012 19/17 A2990 RMK AO2 SLP125 T01890172 58003
KLGB 190753Z AUTO 00000KT 8SM CLR 19/17 A2991 RMK AO2 SLP126 T01940172 402830183
KLGB 190713Z AUTO 00000KT 8SM SCT009 19/17 A2991 RMK AO2 T01940172
KLGB 190653Z AUTO 00000KT 9SM CLR 20/17 A2991 RMK AO2 SLP127 T02000172
KLGB 190553Z 15003KT 9SM CLR 20/17 A2991 RMK AO2 SLP128 T02000172 10283 20200 51005
KLGB 190453Z 09003KT 10SM CLR 21/15 A2991 RMK AO2 SLP128 T02060150
KLGB 190353Z 34004KT 10SM CLR 21/13 A2990 RMK AO2 SLP124 T02110133
KLGB 190253Z 30009KT 10SM CLR 23/11 A2990 RMK AO2 SLP123 T02330111 53006
KLGB 190153Z 26005KT 10SM CLR 26/08 A2988 RMK AO2 SLP118 T02560083
KLGB 190053Z 28010KT 10SM CLR 27/08 A2988 RMK AO2 SLP118 T02670078
KLGB 182353Z 31006KT 10SM CLR 28/13 A2988 RMK AO2 SLP117 T02830133 10283 20239 56013
KLGB 182253Z 17006KT 10SM CLR 26/17 A2989 RMK AO2 SLP121 T02560167
KLGB 182153Z 18005KT 10SM CLR 27/15 A2990 RMK AO2 SLP124 T02670150
KLGB 182053Z 19004KT 10SM CLR 26/15 A2992 RMK AO2 SLP130 T02560150 58013
KLGB 181953Z 17004KT 10SM CLR 26/16 A2994 RMK AO2 SLP136 T02560156
KLGB 181853Z 19007KT 10SM CLR 25/17 A2995 RMK AO2 SLP141 T02500172
KLGB 181753Z 18004KT 10SM CLR 24/18 A2995 RMK AO2 SLP143 T02440178 10244 20183 51007
KLGB 181653Z 13006KT 10SM CLR 23/18 A2995 RMK AO2 SLP143 T02330178
KLGB 181553Z 11003KT 8SM CLR 22/18 A2995 RMK AO2 SLP142 T02170183
KLGB 181453Z 00000KT 9SM CLR 20/14 A2993 RMK AO2 SLP135 T02000144 53008
KLGB 181353Z 00000KT 10SM CLR 19/15 A2992 RMK AO2 SLP132 T01890150
KLGB 181253Z AUTO 00000KT 10SM CLR 19/16 A2991 RMK AO2 SLP127 T01890156
KLGB 181153Z AUTO 00000KT 9SM CLR 19/17 A2991 RMK AO2 SLP126 T01890172 10217 20189 56007
KLGB 181053Z AUTO 00000KT 9SM CLR 19/17 A2991 RMK AO2 SLP127 T01940172
KLGB 180953Z AUTO 00000KT 9SM CLR 19/17 A2991 RMK AO2 SLP129 T01940172
KLGB 180853Z AUTO 13003KT 9SM CLR 20/17 A2993 RMK AO2 SLP134 T02000172 53001
KLGB 180753Z AUTO 11003KT 10SM CLR 21/17 A2992 RMK AO2 SLP132 T02060167 403280167
KLGB 180653Z AUTO 12004KT 9SM CLR 21/16 A2992 RMK AO2 SLP132 T02110161
KLGB 180553Z 14004KT 10SM CLR 22/16 A2993 RMK AO2 SLP133 T02170161 10306 20217 53006
KLGB 180453Z 07004KT 10SM CLR 22/16 A2992 RMK AO2 SLP130 T02220156
KLGB 180353Z 12003KT 10SM CLR 24/13 A2991 RMK AO2 SLP127 T02390133
KLGB 180253Z 26004KT 10SM CLR 27/09 A2991 RMK AO2 SLP127 T02670094 53003
KLGB 180153Z 30007KT 10SM CLR 26/10 A2990 RMK AO2 SLP126 T02560100
KLGB 180053Z 30006KT 10SM CLR 29/07 A2990 RMK AO2 SLP123 T02890072